createdAt,value
2023-03-21T00:01:05.404Z,38.55
2023-03-21T00:03:37.110Z,33.67
2023-03-21T00:06:10.406Z,35.67
2023-03-21T00:08:41.855Z,36.17
2023-03-21T00:11:14.465Z,39.90
2023-03-21T00:13:45.142Z,40.15
2023-03-21T00:16:27.638Z,38.28
2023-03-21T00:19:04.778Z,40.65
2023-03-21T00:21:52.322Z,41.10
2023-03-21T00:24:30.336Z,35.92
2023-03-21T00:27:21.916Z,40.70
2023-03-21T00:29:51.825Z,39.13
2023-03-21T00:32:24.351Z,36.45
2023-03-21T00:35:11.784Z,37.63
2023-03-21T00:37:46.089Z,42.03
2023-03-21T00:40:25.767Z,38.50
2023-03-21T00:45:29.739Z,35.20
2023-03-21T00:48:02.730Z,37.15
2023-03-21T00:50:35.930Z,38.85
2023-03-21T00:53:08.335Z,37.25
2023-03-21T00:55:40.152Z,37.72
2023-03-21T01:00:41.875Z,39.53
2023-03-21T01:03:24.608Z,39.95
2023-03-21T01:06:08.353Z,36.22
2023-03-21T01:08:51.688Z,39.13
2023-03-21T01:11:26.259Z,38.95
2023-03-21T01:16:46.076Z,35.58
2023-03-21T01:19:40.598Z,38.10
2023-03-21T01:22:11.128Z,36.67
2023-03-21T01:24:52.346Z,34.92
2023-03-21T01:27:25.544Z,37.40
2023-03-21T01:29:55.796Z,40.83
2023-03-21T01:32:25.996Z,37.72
2023-03-21T01:34:57.671Z,41.95
2023-03-21T01:37:28.223Z,36.13
2023-03-21T01:39:58.571Z,40.90
2023-03-21T01:42:28.981Z,35.70
2023-03-21T01:45:05.458Z,41.10
2023-03-21T01:47:43.780Z,35.80
2023-03-21T01:50:27.177Z,37.38
2023-03-21T01:53:14.796Z,38.70
2023-03-21T01:55:46.342Z,33.92
2023-03-21T01:58:28.120Z,31.17
2023-03-21T02:01:10.589Z,36.33
2023-03-21T02:03:52.391Z,33.63
2023-03-21T02:06:54.532Z,34.72
2023-03-21T02:09:37.493Z,35.92
2023-03-21T02:12:14.366Z,36.28
2023-03-21T02:14:45.567Z,36.92
2023-03-21T02:17:38.045Z,37.47
2023-03-21T02:20:13.236Z,37.72
2023-03-21T02:22:46.432Z,34.42
2023-03-21T02:25:47.214Z,34.47
2023-03-21T02:28:36.030Z,35.22
2023-03-21T02:31:26.486Z,35.58
2023-03-21T02:34:29.728Z,34.30
2023-03-21T02:37:18.768Z,35.35
2023-03-21T02:40:12.683Z,39.55
2023-03-21T02:43:20.820Z,35.55
2023-03-21T02:46:10.534Z,35.00
2023-03-21T02:48:51.180Z,34.00
2023-03-21T02:51:24.840Z,36.13
2023-03-21T02:54:26.393Z,32.45
2023-03-21T02:56:58.474Z,35.70
2023-03-21T02:59:31.118Z,33.90
2023-03-21T03:02:03.648Z,35.08
2023-03-21T03:04:34.066Z,33.10
2023-03-21T03:07:27.036Z,33.60
2023-03-21T03:10:18.552Z,34.55
2023-03-21T03:13:27.644Z,34.38
2023-03-21T03:16:21.374Z,34.00
2023-03-21T03:21:34.190Z,35.03
2023-03-21T03:24:16.166Z,32.47
2023-03-21T03:26:59.348Z,31.48
2023-03-21T03:29:35.829Z,36.42
2023-03-21T03:32:18.664Z,35.10
2023-03-21T03:34:58.681Z,32.42
2023-03-21T03:37:36.259Z,34.63
2023-03-21T03:40:27.906Z,36.20
2023-03-21T03:43:22.482Z,33.78
2023-03-21T03:46:00.686Z,30.05
2023-03-21T03:48:37.945Z,33.30
2023-03-21T03:51:17.797Z,33.15
2023-03-21T03:54:23.414Z,31.80
2023-03-21T03:56:54.695Z,30.73
2023-03-21T03:59:26.760Z,31.77
2023-03-21T04:02:21.703Z,28.55
2023-03-21T04:04:54.925Z,31.55
2023-03-21T04:07:26.690Z,30.60
2023-03-21T04:10:00.757Z,31.77
2023-03-21T04:12:31.228Z,30.17
2023-03-21T04:15:30.249Z,31.85
2023-03-21T04:18:07.540Z,31.45
2023-03-21T04:20:38.067Z,28.50
2023-03-21T04:23:10.058Z,30.77
2023-03-21T04:25:53.990Z,30.15
2023-03-21T04:28:30.036Z,29.17
2023-03-21T04:31:32.657Z,26.48
2023-03-21T04:34:15.004Z,25.73
2023-03-21T04:36:51.165Z,29.10
2023-03-21T04:39:22.526Z,25.02
2023-03-21T04:41:53.340Z,28.48
2023-03-21T04:44:24.827Z,27.75
2023-03-21T04:46:55.112Z,25.88
2023-03-21T04:49:25.386Z,24.30
2023-03-21T04:51:56.118Z,27.77
2023-03-21T04:54:26.563Z,25.75
2023-03-21T04:56:57.236Z,29.65
2023-03-21T04:59:30.196Z,26.70
2023-03-21T05:02:01.361Z,25.38
2023-03-21T05:04:34.830Z,25.80
2023-03-21T05:07:05.377Z,26.08
2023-03-21T05:09:35.813Z,26.30
2023-03-21T05:12:06.417Z,27.92
2023-03-21T05:14:37.986Z,22.88
2023-03-21T05:17:09.648Z,24.48
2023-03-21T05:19:42.102Z,23.17
2023-03-21T05:22:13.649Z,24.70
2023-03-21T05:24:44.595Z,22.90
2023-03-21T05:27:37.067Z,23.38
2023-03-21T05:30:20.307Z,24.52
2023-03-21T05:32:54.064Z,21.60
2023-03-21T05:35:26.461Z,23.67
2023-03-21T05:38:00.326Z,22.95
2023-03-21T05:40:34.570Z,22.52
2023-03-21T05:43:07.297Z,21.13
2023-03-21T05:45:38.691Z,25.77
2023-03-21T05:48:09.394Z,22.45
2023-03-21T05:50:56.196Z,21.92
2023-03-21T05:53:26.790Z,22.83
2023-03-21T05:55:57.392Z,23.45
2023-03-21T05:58:56.963Z,21.20
2023-03-21T06:01:28.353Z,22.80
2023-03-21T06:04:12.275Z,20.92
2023-03-21T06:06:43.381Z,22.58
2023-03-21T06:09:15.117Z,20.45
2023-03-21T06:11:53.757Z,25.25
2023-03-21T06:14:56.334Z,23.55
2023-03-21T06:17:36.504Z,21.92
2023-03-21T06:20:13.088Z,30.85
2023-03-21T06:22:48.916Z,23.42
2023-03-21T06:25:19.336Z,22.33
2023-03-21T06:27:49.716Z,21.80
2023-03-21T06:30:21.245Z,23.88
2023-03-21T06:33:15.485Z,24.02
2023-03-21T06:35:47.005Z,26.88
2023-03-21T06:38:20.619Z,24.63
2023-03-21T06:40:51.713Z,21.17
2023-03-21T06:45:54.496Z,25.00
2023-03-21T06:48:24.936Z,23.98
2023-03-21T06:50:56.260Z,22.05
2023-03-21T06:53:31.948Z,25.58
2023-03-21T06:56:40.560Z,21.55
2023-03-21T06:59:17.698Z,21.17
2023-03-21T07:01:55.388Z,21.65
2023-03-21T07:04:26.485Z,22.13
2023-03-21T07:06:58.705Z,20.15
2023-03-21T07:09:30.446Z,21.80
2023-03-21T07:12:06.587Z,20.80
2023-03-21T07:14:52.643Z,20.67
2023-03-21T07:17:23.414Z,21.90
2023-03-21T07:19:53.605Z,20.30
2023-03-21T07:22:24.329Z,18.08
2023-03-21T07:25:04.465Z,20.83
2023-03-21T07:27:41.519Z,20.00
2023-03-21T07:30:13.649Z,20.90
2023-03-21T07:32:44.291Z,18.05
2023-03-21T07:35:16.319Z,18.58
2023-03-21T07:37:46.972Z,17.33
2023-03-21T07:40:19.588Z,16.17
2023-03-21T07:42:54.869Z,17.88
2023-03-21T07:45:32.739Z,19.83
2023-03-21T07:48:03.867Z,19.83
2023-03-21T07:50:37.220Z,16.55
2023-03-21T07:53:10.366Z,18.55
2023-03-21T07:55:40.882Z,18.33
2023-03-21T07:58:11.279Z,16.40
2023-03-21T08:00:41.499Z,18.65
2023-03-21T08:03:12.353Z,17.85
2023-03-21T08:05:43.625Z,16.13
2023-03-21T08:08:14.397Z,16.75
2023-03-21T08:10:47.668Z,18.08
2023-03-21T08:13:18.096Z,17.67
2023-03-21T08:15:49.377Z,18.15
2023-03-21T08:18:19.674Z,19.05
2023-03-21T08:20:54.934Z,18.25
2023-03-21T08:23:26.198Z,17.50
2023-03-21T08:25:57.971Z,16.90
2023-03-21T08:28:28.376Z,16.55
2023-03-21T08:30:58.980Z,15.48
2023-03-21T08:33:29.478Z,15.20
2023-03-21T08:36:02.706Z,14.75
2023-03-21T08:38:35.051Z,16.50
2023-03-21T08:41:05.916Z,14.25
2023-03-21T08:43:36.438Z,14.70
2023-03-21T08:46:06.922Z,16.15
2023-03-21T08:48:40.351Z,15.27
2023-03-21T08:51:10.925Z,16.50
2023-03-21T08:53:43.029Z,16.70
2023-03-21T08:56:14.295Z,14.50
2023-03-21T08:58:46.116Z,17.88
2023-03-21T09:01:17.189Z,15.52
2023-03-21T09:03:48.398Z,14.88
2023-03-21T09:06:18.976Z,14.25
2023-03-21T09:08:49.894Z,14.18
2023-03-21T09:11:20.276Z,15.30
2023-03-21T09:13:50.452Z,14.63
2023-03-21T09:16:21.115Z,13.50
2023-03-21T09:18:57.068Z,16.75
2023-03-21T09:21:29.774Z,15.57
2023-03-21T09:24:02.270Z,16.40
2023-03-21T09:29:04.633Z,17.48
2023-03-21T09:31:36.140Z,13.18
2023-03-21T09:34:06.553Z,17.55
2023-03-21T09:36:37.711Z,17.60
2023-03-21T09:39:08.653Z,17.92
2023-03-21T09:41:54.484Z,17.38
2023-03-21T09:44:48.134Z,18.33
2023-03-21T09:50:12.855Z,16.63
2023-03-21T09:53:08.823Z,18.17
2023-03-21T09:55:42.701Z,17.35
2023-03-21T09:58:38.660Z,20.05
2023-03-21T10:01:23.674Z,23.15
2023-03-21T10:03:55.949Z,18.77
2023-03-21T10:06:31.631Z,18.23
2023-03-21T10:09:25.956Z,19.40
2023-03-21T10:12:09.914Z,18.23
2023-03-21T10:14:48.094Z,18.60
2023-03-21T10:17:35.891Z,20.23
2023-03-21T10:20:29.844Z,22.65
2023-03-21T10:23:03.665Z,20.60
2023-03-21T10:25:38.533Z,24.88
2023-03-21T10:28:14.459Z,21.80
2023-03-21T10:30:51.269Z,25.83
2023-03-21T10:33:27.725Z,21.27
2023-03-21T10:36:09.202Z,24.70
2023-03-21T10:38:46.258Z,24.05
2023-03-21T10:41:16.660Z,23.90
2023-03-21T10:43:47.436Z,24.45
2023-03-21T10:46:23.136Z,24.98
2023-03-21T10:48:56.141Z,25.33
2023-03-21T10:51:32.607Z,23.10
2023-03-21T10:54:17.962Z,25.35
2023-03-21T10:56:52.813Z,24.60
2023-03-21T10:59:24.499Z,25.05
2023-03-21T11:01:57.874Z,25.55
2023-03-21T11:04:31.328Z,26.52
2023-03-21T11:07:09.009Z,29.13
2023-03-21T11:10:00.002Z,26.10
2023-03-21T11:12:42.315Z,24.30
2023-03-21T11:15:42.842Z,26.52
2023-03-21T11:18:22.317Z,26.98
2023-03-21T11:21:07.059Z,28.88
2023-03-21T11:23:45.424Z,25.73
2023-03-21T11:26:39.697Z,40.67
2023-03-21T11:29:31.110Z,39.63
2023-03-21T11:32:03.993Z,40.00
2023-03-21T11:34:44.626Z,43.47
2023-03-21T11:37:27.795Z,46.83
2023-03-21T11:40:08.434Z,57.53
2023-03-21T11:42:49.633Z,50.67
2023-03-21T11:45:35.167Z,52.70
2023-03-21T11:48:16.892Z,52.30
2023-03-21T11:50:51.727Z,50.83
2023-03-21T11:53:46.958Z,47.78
2023-03-21T11:56:37.921Z,50.60
2023-03-21T11:59:38.762Z,50.33
2023-03-21T12:02:57.308Z,51.15
2023-03-21T12:05:37.795Z,50.30
2023-03-21T12:08:33.201Z,52.10
2023-03-21T12:11:42.205Z,51.95
2023-03-21T12:14:29.569Z,54.15
2023-03-21T12:17:12.130Z,58.72
2023-03-21T12:23:10.692Z,58.95
2023-03-21T12:25:49.589Z,54.45
2023-03-21T12:28:38.181Z,53.00
2023-03-21T12:31:11.284Z,56.75
2023-03-21T12:34:08.887Z,55.38
2023-03-21T12:36:50.314Z,50.00
2023-03-21T12:39:38.204Z,56.05
2023-03-21T12:42:20.566Z,52.78
2023-03-21T12:44:57.668Z,52.88
2023-03-21T12:47:34.719Z,48.08
2023-03-21T12:50:08.684Z,52.92
2023-03-21T12:52:46.439Z,51.35
2023-03-21T12:55:27.646Z,55.60
2023-03-21T12:58:05.957Z,52.13
2023-03-21T13:00:53.394Z,60.63
2023-03-21T13:03:39.793Z,54.20
2023-03-21T13:06:16.511Z,55.65
2023-03-21T13:08:59.275Z,54.10
2023-03-21T13:11:32.847Z,53.08
2023-03-21T13:14:23.859Z,59.55
2023-03-21T13:17:00.524Z,50.78
2023-03-21T13:19:44.724Z,51.85
2023-03-21T13:22:47.694Z,55.97
2023-03-21T13:25:24.142Z,51.60
2023-03-21T13:28:05.700Z,54.90
2023-03-21T13:30:37.236Z,54.13
2023-03-21T13:33:15.987Z,49.45
2023-03-21T13:35:47.935Z,57.97
2023-03-21T13:38:32.189Z,55.33
2023-03-21T13:41:17.380Z,51.08
2023-03-21T13:44:08.164Z,50.40
2023-03-21T13:47:07.389Z,59.80
2023-03-21T13:49:40.004Z,56.60
2023-03-21T13:52:13.668Z,54.22
2023-03-21T13:54:59.788Z,52.03
2023-03-21T13:57:33.527Z,51.97
2023-03-21T14:00:34.722Z,54.10
2023-03-21T14:03:12.042Z,57.55
2023-03-21T14:05:43.165Z,53.28
2023-03-21T14:08:31.183Z,56.90
2023-03-21T14:11:09.975Z,53.47
2023-03-21T14:13:51.207Z,57.10
2023-03-21T14:16:26.867Z,57.05
2023-03-21T14:19:03.395Z,52.08
2023-03-21T14:21:37.850Z,57.35
2023-03-21T14:24:21.790Z,53.95
2023-03-21T14:26:57.830Z,53.55
2023-03-21T14:29:37.340Z,57.28
2023-03-21T14:32:07.841Z,58.25
2023-03-21T14:34:39.189Z,52.90
2023-03-21T14:37:13.633Z,56.53
2023-03-21T14:39:44.084Z,51.47
2023-03-21T14:42:17.231Z,52.90
2023-03-21T14:44:55.639Z,54.47
2023-03-21T14:47:29.458Z,64.60
2023-03-21T14:52:35.286Z,54.38
2023-03-21T14:55:17.514Z,57.50
2023-03-21T14:57:48.091Z,54.58
2023-03-21T15:00:31.333Z,58.85
2023-03-21T15:03:02.633Z,53.70
2023-03-21T15:05:39.218Z,53.35
2023-03-21T15:08:24.395Z,55.13
2023-03-21T15:11:06.918Z,54.15
2023-03-21T15:16:11.764Z,57.17
2023-03-21T15:18:43.392Z,56.95
2023-03-21T15:21:25.362Z,51.65
2023-03-21T15:24:00.893Z,56.10
2023-03-21T15:26:36.499Z,56.15
2023-03-21T15:29:09.078Z,55.42
2023-03-21T15:31:42.848Z,58.92
2023-03-21T15:34:25.863Z,53.45
2023-03-21T15:37:07.033Z,52.25
2023-03-21T15:39:38.150Z,52.53
2023-03-21T15:42:26.443Z,53.40
2023-03-21T15:45:00.314Z,48.70
2023-03-21T15:48:04.634Z,53.78
2023-03-21T15:50:44.342Z,55.97
2023-03-21T15:53:21.650Z,53.00
2023-03-21T15:56:06.176Z,50.28
2023-03-21T15:58:53.760Z,52.00
2023-03-21T16:01:27.904Z,56.85
2023-03-21T16:04:04.203Z,57.90
2023-03-21T16:06:38.021Z,52.53
2023-03-21T16:09:29.336Z,53.95
2023-03-21T16:12:01.327Z,50.65
2023-03-21T16:14:31.716Z,53.60
2023-03-21T16:17:02.561Z,54.10
2023-03-21T16:19:32.922Z,56.55
2023-03-21T16:22:03.555Z,54.40
2023-03-21T16:24:33.772Z,54.35
2023-03-21T16:27:04.504Z,51.15
2023-03-21T16:29:35.644Z,55.65
2023-03-21T16:32:07.877Z,51.50
2023-03-21T16:34:38.925Z,48.83
2023-03-21T16:37:11.581Z,52.45
2023-03-21T16:39:41.949Z,51.38
2023-03-21T16:42:14.651Z,48.60
2023-03-21T16:44:45.021Z,51.55
2023-03-21T16:47:25.379Z,50.22
2023-03-21T16:49:57.205Z,57.80
2023-03-21T16:52:27.940Z,49.25
2023-03-21T16:54:58.091Z,57.70
2023-03-21T16:57:29.683Z,49.40
2023-03-21T16:59:59.997Z,49.03
2023-03-21T17:02:30.418Z,50.28
2023-03-21T17:05:01.697Z,49.90
2023-03-21T17:07:33.447Z,52.20
2023-03-21T17:10:03.903Z,52.28
2023-03-21T17:12:34.261Z,51.13
2023-03-21T17:15:05.006Z,58.80
2023-03-21T17:17:35.653Z,59.50
2023-03-21T17:20:21.032Z,54.60
2023-03-21T17:22:52.422Z,54.42
2023-03-21T17:25:24.154Z,54.03
2023-03-21T17:27:55.705Z,54.65
2023-03-21T17:30:34.593Z,53.90
2023-03-21T17:33:05.817Z,54.25
2023-03-21T17:35:36.840Z,54.92
2023-03-21T17:38:08.852Z,50.78
2023-03-21T17:40:39.473Z,54.63
2023-03-21T17:43:17.544Z,49.03
2023-03-21T17:45:48.567Z,53.10
2023-03-21T17:48:18.974Z,54.83
2023-03-21T17:50:49.453Z,52.60
2023-03-21T17:53:19.803Z,48.33
2023-03-21T17:55:50.102Z,47.75
2023-03-21T17:58:20.579Z,55.63
2023-03-21T18:00:50.709Z,49.72
2023-03-21T18:03:21.790Z,55.80
2023-03-21T18:05:52.337Z,54.35
2023-03-21T18:08:23.644Z,54.35
2023-03-21T18:10:55.082Z,61.88
2023-03-21T18:13:25.584Z,48.58
2023-03-21T18:15:56.594Z,51.88
2023-03-21T18:18:28.752Z,53.90
2023-03-21T18:20:59.821Z,55.80
2023-03-21T18:23:30.335Z,55.53
2023-03-21T18:26:01.206Z,52.40
2023-03-21T18:28:31.934Z,51.03
2023-03-21T18:31:11.233Z,55.63
2023-03-21T18:33:46.537Z,55.30
2023-03-21T18:36:25.331Z,50.97
2023-03-21T18:38:58.229Z,56.13
2023-03-21T18:41:28.684Z,48.13
2023-03-21T18:44:02.237Z,56.92
2023-03-21T18:46:42.028Z,56.10
2023-03-21T18:49:56.086Z,50.78
2023-03-21T18:52:03.397Z,53.75
2023-03-21T18:54:34.593Z,54.90
2023-03-21T18:57:34.998Z,53.17
2023-03-21T18:59:58.162Z,57.63
2023-03-21T19:02:28.977Z,51.90
2023-03-21T19:04:59.351Z,52.80
2023-03-21T19:07:29.710Z,55.85
2023-03-21T19:10:16.392Z,51.47
2023-03-21T19:12:48.195Z,54.35
2023-03-21T19:15:20.981Z,56.58
2023-03-21T19:20:48.476Z,55.63
2023-03-21T19:23:18.897Z,50.60
2023-03-21T19:25:49.674Z,54.47
2023-03-21T19:28:21.328Z,53.40
2023-03-21T19:30:52.061Z,57.30
2023-03-21T19:33:22.544Z,52.03
2023-03-21T19:36:10.659Z,54.38
2023-03-21T19:38:43.647Z,57.45
2023-03-21T19:41:14.808Z,51.47
2023-03-21T19:43:53.623Z,52.92
2023-03-21T19:46:29.006Z,51.33
2023-03-21T19:48:59.577Z,54.90
2023-03-21T19:51:30.839Z,52.63
2023-03-21T19:54:02.858Z,52.65
2023-03-21T19:56:34.499Z,52.53
2023-03-21T19:59:05.821Z,54.92
2023-03-21T20:01:36.268Z,54.75
2023-03-21T20:04:07.024Z,59.58
2023-03-21T20:06:37.515Z,52.13
2023-03-21T20:12:02.010Z,56.53
2023-03-21T20:14:32.823Z,56.13
2023-03-21T20:17:03.636Z,54.28
2023-03-21T20:19:34.802Z,55.42
2023-03-21T20:22:20.242Z,57.28
2023-03-21T20:24:57.447Z,58.60
2023-03-21T20:27:30.426Z,53.67
2023-03-21T20:30:09.060Z,57.53
2023-03-21T20:32:41.761Z,61.55
2023-03-21T20:35:21.130Z,58.28
2023-03-21T20:38:02.176Z,56.78
2023-03-21T20:40:32.882Z,57.55
2023-03-21T20:43:40.144Z,57.35
2023-03-21T20:46:10.890Z,60.45
2023-03-21T20:48:42.124Z,58.15
2023-03-21T20:54:05.074Z,55.33
2023-03-21T20:56:36.119Z,58.70
2023-03-21T20:59:17.754Z,65.28
2023-03-21T21:01:55.261Z,61.75
2023-03-21T21:04:44.172Z,62.42
2023-03-21T21:07:17.557Z,60.72
2023-03-21T21:09:48.573Z,60.10
2023-03-21T21:12:20.656Z,63.92
2023-03-21T21:14:52.246Z,64.25
2023-03-21T21:18:03.870Z,61.35
2023-03-21T21:20:19.057Z,62.38
2023-03-21T21:22:59.636Z,60.42
2023-03-21T21:25:33.750Z,62.53
2023-03-21T21:28:10.457Z,65.68
2023-03-21T21:30:42.694Z,65.05
2023-03-21T21:33:15.916Z,64.53
2023-03-21T21:35:49.577Z,62.33
2023-03-21T21:43:24.495Z,65.75
2023-03-21T21:45:56.371Z,69.97
2023-03-21T21:48:27.133Z,64.15
2023-03-21T21:50:57.650Z,66.68
2023-03-21T21:53:29.865Z,63.50
2023-03-21T21:56:03.427Z,61.85
2023-03-21T21:58:40.405Z,69.25
2023-03-21T22:01:12.007Z,69.05
2023-03-21T22:03:47.497Z,70.35
2023-03-21T22:06:18.213Z,68.72
2023-03-21T22:08:48.701Z,65.03
2023-03-21T22:11:20.205Z,60.92
2023-03-21T22:13:50.602Z,70.25
2023-03-21T22:16:20.974Z,62.63
2023-03-21T22:18:51.872Z,64.88
2023-03-21T22:21:22.662Z,66.95
2023-03-21T22:23:53.743Z,65.40
2023-03-21T22:26:24.137Z,65.07
2023-03-21T22:28:54.481Z,66.30
2023-03-21T22:31:25.445Z,63.58
2023-03-21T22:33:56.914Z,63.60
2023-03-21T22:36:27.283Z,61.90
2023-03-21T22:38:58.000Z,66.80
2023-03-21T22:41:28.348Z,64.45
2023-03-21T22:43:58.501Z,64.63
2023-03-21T22:46:29.673Z,60.80
2023-03-21T22:49:00.110Z,59.90
2023-03-21T22:51:31.069Z,64.72
2023-03-21T22:54:01.501Z,64.10
2023-03-21T22:56:32.659Z,63.97
2023-03-21T22:59:03.504Z,67.13
2023-03-21T23:01:33.681Z,65.60
2023-03-21T23:04:04.256Z,62.13
2023-03-21T23:06:35.153Z,62.85
2023-03-21T23:09:05.767Z,68.13
2023-03-21T23:11:36.313Z,59.42
2023-03-21T23:14:08.526Z,59.28
2023-03-21T23:16:39.705Z,61.73
2023-03-21T23:19:11.899Z,65.55
2023-03-21T23:21:42.806Z,60.70
2023-03-21T23:24:14.042Z,59.95
2023-03-21T23:26:44.650Z,60.42
2023-03-21T23:29:15.696Z,56.53
2023-03-21T23:31:46.242Z,57.28
2023-03-21T23:34:17.189Z,59.65
2023-03-21T23:36:47.699Z,60.97
2023-03-21T23:39:20.008Z,55.88
2023-03-21T23:41:50.312Z,57.43
2023-03-21T23:44:20.699Z,59.10
2023-03-21T23:46:51.004Z,55.88
2023-03-21T23:49:21.399Z,62.45
2023-03-21T23:51:52.377Z,56.60
2023-03-21T23:54:22.776Z,56.45
2023-03-21T23:56:53.291Z,58.40
2023-03-21T23:59:23.622Z,57.50
